createdAt,value
2016-11-13T00:01:13.446Z,20.7
2016-11-13T00:06:17.523Z,20.7
2016-11-13T00:11:21.608Z,20.7
2016-11-13T00:16:25.689Z,20.7
2016-11-13T00:21:30.438Z,20.7
2016-11-13T00:26:34.518Z,20.7
2016-11-13T00:31:38.939Z,20.7
2016-11-13T00:36:43.350Z,20.7
2016-11-13T00:41:47.435Z,20.7
2016-11-13T00:46:51.522Z,20.7
2016-11-13T00:51:55.602Z,20.7
2016-11-13T00:56:59.676Z,20.6
2016-11-13T01:02:04.093Z,20.6
2016-11-13T01:07:08.171Z,20.6
2016-11-13T01:12:12.580Z,20.6
2016-11-13T01:17:16.996Z,20.6
2016-11-13T01:22:21.077Z,20.6
2016-11-13T01:27:25.489Z,20.6
2016-11-13T01:32:29.564Z,20.6
2016-11-13T01:37:33.979Z,20.6
2016-11-13T01:42:38.732Z,20.6
2016-11-13T01:47:42.814Z,20.6
2016-11-13T01:52:46.894Z,20.6
2016-11-13T01:57:50.978Z,20.6
2016-11-13T02:02:55.058Z,20.6
2016-11-13T02:07:59.138Z,20.6
2016-11-13T02:13:03.548Z,20.6
2016-11-13T02:18:07.626Z,20.6
2016-11-13T02:23:11.701Z,20.6
2016-11-13T02:28:15.785Z,20.5
2016-11-13T02:33:20.199Z,20.5
2016-11-13T02:38:24.280Z,20.5
2016-11-13T02:43:29.038Z,20.5
2016-11-13T02:48:33.124Z,20.5
2016-11-13T02:53:37.535Z,20.5
2016-11-13T02:58:41.944Z,20.5
2016-11-13T03:03:46.023Z,20.5
2016-11-13T03:08:50.432Z,20.5
2016-11-13T03:13:54.519Z,20.5
2016-11-13T03:18:58.597Z,20.5
2016-11-13T03:24:02.678Z,20.5
2016-11-13T03:29:07.106Z,20.5
2016-11-13T03:34:11.855Z,20.5
2016-11-13T03:39:16.262Z,20.5
2016-11-13T03:44:20.345Z,20.5
2016-11-13T03:49:24.423Z,20.5
2016-11-13T03:54:28.507Z,20.5
2016-11-13T03:59:32.921Z,20.5
2016-11-13T04:04:37.681Z,20.5
2016-11-13T04:09:42.097Z,20.5
2016-11-13T04:14:46.522Z,20.5
2016-11-13T04:19:50.603Z,20.5
2016-11-13T04:24:55.025Z,20.5
2016-11-13T04:29:59.444Z,20.5
2016-11-13T04:35:03.525Z,20.5
2016-11-13T04:40:07.607Z,20.5
2016-11-13T04:45:12.354Z,20.5
2016-11-13T04:50:16.776Z,20.5
2016-11-13T04:55:21.197Z,20.5
2016-11-13T05:00:25.618Z,20.5
2016-11-13T05:05:29.700Z,20.5
2016-11-13T05:10:33.782Z,20.5
2016-11-13T05:15:37.861Z,20.5
2016-11-13T05:20:42.270Z,20.5
2016-11-13T05:25:46.701Z,20.5
2016-11-13T05:30:50.779Z,20.5
2016-11-13T05:35:54.867Z,20.5
2016-11-13T05:40:59.301Z,20.5
2016-11-13T05:46:03.382Z,20.5
2016-11-13T05:51:07.804Z,20.5
2016-11-13T05:56:11.889Z,20.5
2016-11-13T06:01:16.650Z,20.5
2016-11-13T06:06:21.396Z,20.5
2016-11-13T06:11:25.806Z,20.5
2016-11-13T06:16:30.556Z,20.5
2016-11-13T06:21:35.312Z,20.5
2016-11-13T06:26:39.388Z,20.5
2016-11-13T06:31:43.796Z,20.5
2016-11-13T06:36:48.216Z,20.5
2016-11-13T06:41:52.299Z,20.5
2016-11-13T06:46:56.382Z,20.5
2016-11-13T06:52:00.798Z,20.5
2016-11-13T06:57:05.888Z,20.5
2016-11-13T07:02:09.973Z,20.5
2016-11-13T07:07:14.053Z,20.5
2016-11-13T07:12:18.803Z,20.5
2016-11-13T07:17:22.878Z,20.5
2016-11-13T07:22:26.964Z,20.5
2016-11-13T07:27:31.383Z,20.5
2016-11-13T07:32:35.476Z,20.5
2016-11-13T07:37:39.885Z,20.6
2016-11-13T07:42:43.973Z,20.6
2016-11-13T07:47:48.059Z,20.6
2016-11-13T07:52:52.144Z,20.6
2016-11-13T07:57:56.238Z,20.6
2016-11-13T08:03:00.665Z,20.6
2016-11-13T08:08:05.511Z,20.6
2016-11-13T08:13:09.574Z,20.6
2016-11-13T08:18:14.003Z,20.7
2016-11-13T08:23:18.432Z,20.8
2016-11-13T08:28:22.915Z,20.8
2016-11-13T08:33:27.348Z,20.9
2016-11-13T08:38:31.655Z,21
2016-11-13T08:43:36.570Z,21.1
2016-11-13T08:48:41.061Z,21.1
2016-11-13T08:53:45.153Z,21.1
2016-11-13T08:58:49.574Z,21.1
2016-11-13T09:03:53.995Z,21.1
2016-11-13T09:08:58.085Z,21.1
2016-11-13T09:14:02.505Z,21.2
2016-11-13T09:19:06.587Z,21.2
2016-11-13T09:24:10.672Z,21.3
2016-11-13T09:29:15.096Z,21.3
2016-11-13T09:34:19.185Z,21.2
2016-11-13T09:39:23.606Z,21.2
2016-11-13T09:44:28.109Z,21.1
2016-11-13T09:49:32.197Z,21.1
2016-11-13T09:54:36.614Z,21.1
2016-11-13T09:59:40.698Z,21.1
2016-11-13T10:04:44.785Z,21.1
2016-11-13T10:09:49.549Z,21.1
2016-11-13T10:14:53.628Z,21.1
2016-11-13T10:19:57.722Z,21.2
2016-11-13T10:25:01.814Z,21.2
2016-11-13T10:30:06.249Z,21.2
2016-11-13T10:35:10.330Z,21.2
2016-11-13T10:40:15.085Z,21.2
2016-11-13T10:45:19.508Z,21.2
2016-11-13T10:50:23.922Z,21.1
2016-11-13T10:55:28.681Z,21.1
2016-11-13T11:00:33.123Z,21.1
2016-11-13T11:05:37.560Z,21.1
2016-11-13T11:10:41.972Z,21.1
2016-11-13T11:15:46.066Z,21.2
2016-11-13T11:20:50.146Z,21.3
2016-11-13T11:25:54.910Z,21.4
2016-11-13T11:30:59.007Z,21.4
2016-11-13T11:36:03.436Z,21.4
2016-11-13T11:41:07.865Z,21.5
2016-11-13T11:46:11.978Z,21.5
2016-11-13T11:51:16.637Z,21.5
2016-11-13T11:56:20.732Z,21.5
2016-11-13T12:01:24.830Z,21.5
2016-11-13T12:06:29.319Z,21.5
2016-11-13T12:11:33.394Z,21.6
2016-11-13T12:16:37.478Z,21.6
2016-11-13T12:21:41.894Z,21.5
2016-11-13T12:26:45.991Z,21.5
2016-11-13T12:31:50.433Z,21.6
2016-11-13T12:36:54.532Z,21.7
2016-11-13T12:41:58.961Z,21.7
2016-11-13T12:47:03.052Z,21.8
2016-11-13T12:52:07.143Z,21.8
2016-11-13T12:57:11.585Z,21.9
2016-11-13T13:02:16.093Z,21.9
2016-11-13T13:07:20.203Z,22
2016-11-13T13:12:24.306Z,22
2016-11-13T13:17:28.725Z,22
2016-11-13T13:22:33.153Z,22
2016-11-13T13:27:37.581Z,22
2016-11-13T13:32:42.339Z,22.1
2016-11-13T13:37:46.755Z,22.1
2016-11-13T13:42:50.839Z,22.1
2016-11-13T13:47:55.263Z,22.1
2016-11-13T13:52:59.349Z,22.1
2016-11-13T13:58:03.770Z,22.1
2016-11-13T14:03:08.542Z,22.1
2016-11-13T14:08:12.990Z,22.1
2016-11-13T14:13:17.093Z,22.1
2016-11-13T14:18:21.183Z,22
2016-11-13T14:23:25.608Z,21.9
2016-11-13T14:28:29.690Z,21.9
2016-11-13T14:33:34.110Z,21.9
2016-11-13T14:38:38.195Z,21.8
2016-11-13T14:43:42.945Z,21.8
2016-11-13T14:48:47.364Z,21.7
2016-11-13T14:53:52.123Z,21.7
2016-11-13T14:58:56.228Z,21.7
2016-11-13T15:04:00.312Z,21.7
2016-11-13T15:09:04.732Z,21.7
2016-11-13T15:14:08.844Z,21.7
2016-11-13T15:19:13.628Z,21.7
2016-11-13T15:24:17.762Z,21.6
2016-11-13T15:29:22.220Z,21.6
2016-11-13T15:34:26.301Z,21.6
2016-11-13T15:39:30.385Z,21.6
2016-11-13T15:44:34.962Z,21.6
2016-11-13T15:49:40.053Z,21.6
2016-11-13T15:54:44.133Z,21.6
2016-11-13T15:59:48.926Z,21.6
2016-11-13T16:04:53.366Z,21.6
2016-11-13T16:09:57.454Z,21.7
2016-11-13T16:15:01.866Z,21.7
2016-11-13T16:20:06.620Z,21.7
2016-11-13T16:25:10.713Z,21.8
2016-11-13T16:30:14.971Z,21.8
2016-11-13T16:35:19.072Z,21.9
2016-11-13T16:40:23.160Z,21.9
2016-11-13T16:45:27.626Z,21.9
2016-11-13T16:50:31.713Z,21.8
2016-11-13T16:55:36.133Z,21.8
2016-11-13T17:00:40.556Z,21.8
2016-11-13T17:05:44.639Z,21.8
2016-11-13T17:10:48.725Z,21.7
2016-11-13T17:15:53.472Z,21.7
2016-11-13T17:20:57.549Z,21.7
2016-11-13T17:26:01.967Z,21.7
2016-11-13T17:31:06.722Z,21.7
2016-11-13T17:36:11.137Z,21.7
2016-11-13T17:41:15.225Z,21.8
2016-11-13T17:46:19.797Z,21.8
2016-11-13T17:51:23.959Z,21.8
2016-11-13T17:56:28.381Z,21.8
2016-11-13T18:01:32.825Z,21.8
2016-11-13T18:06:37.618Z,21.9
2016-11-13T18:11:42.066Z,21.9
2016-11-13T18:16:46.171Z,21.9
2016-11-13T18:21:50.602Z,21.9
2016-11-13T18:26:54.685Z,21.8
2016-11-13T18:31:59.440Z,21.8
2016-11-13T18:37:03.529Z,21.7
2016-11-13T18:42:07.855Z,21.8
2016-11-13T18:47:11.971Z,21.7
2016-11-13T18:52:16.395Z,21.7
2016-11-13T18:57:20.838Z,21.7
2016-11-13T19:02:24.930Z,21.7
2016-11-13T19:07:29.347Z,21.7
2016-11-13T19:12:33.770Z,21.7
2016-11-13T19:17:37.855Z,21.7
2016-11-13T19:22:42.274Z,21.7
2016-11-13T19:27:46.362Z,21.7
2016-11-13T19:32:50.438Z,21.7
2016-11-13T19:37:54.524Z,21.7
2016-11-13T19:42:58.606Z,21.7
2016-11-13T19:48:02.686Z,21.7
2016-11-13T19:53:06.778Z,21.7
2016-11-13T19:58:11.191Z,21.6
2016-11-13T20:03:15.612Z,21.6
2016-11-13T20:08:19.695Z,21.6
2016-11-13T20:13:24.788Z,21.6
2016-11-13T20:18:28.885Z,21.6
2016-11-13T20:23:33.321Z,21.6
2016-11-13T20:28:37.405Z,21.6
2016-11-13T20:33:41.830Z,21.6
2016-11-13T20:38:46.248Z,21.6
2016-11-13T20:43:51.050Z,21.6
2016-11-13T20:48:55.150Z,21.6
2016-11-13T20:53:59.577Z,21.6
2016-11-13T20:59:03.668Z,21.5
2016-11-13T21:04:07.773Z,21.5
2016-11-13T21:09:12.152Z,21.5
2016-11-13T21:14:16.236Z,21.4
2016-11-13T21:19:20.320Z,21.4
2016-11-13T21:24:25.116Z,21.4
2016-11-13T21:29:29.590Z,21.4
2016-11-13T21:34:34.007Z,21.3
2016-11-13T21:39:38.467Z,21.3
2016-11-13T21:44:42.583Z,21.3
2016-11-13T21:49:47.005Z,21.3
2016-11-13T21:54:51.111Z,21.2
2016-11-13T21:59:55.199Z,21.2
2016-11-13T22:04:59.298Z,21.2
2016-11-13T22:10:03.719Z,21.2
2016-11-13T22:15:08.473Z,21.2
2016-11-13T22:20:12.887Z,21.2
2016-11-13T22:25:16.966Z,21.2
2016-11-13T22:30:21.048Z,21.1
2016-11-13T22:35:25.124Z,21.1
2016-11-13T22:40:29.548Z,21.1
2016-11-13T22:45:33.638Z,21.1
2016-11-13T22:50:38.051Z,21.1
2016-11-13T22:55:42.132Z,21.1
2016-11-13T23:00:46.213Z,21.1
2016-11-13T23:05:50.629Z,21
2016-11-13T23:10:54.709Z,21
2016-11-13T23:15:59.126Z,21
2016-11-13T23:21:03.560Z,21
2016-11-13T23:26:07.639Z,21
2016-11-13T23:31:11.720Z,21
2016-11-13T23:36:16.139Z,21
2016-11-13T23:41:20.891Z,21
2016-11-13T23:46:24.972Z,21
2016-11-13T23:51:29.048Z,21
2016-11-13T23:56:33.468Z,20.9
